createdAt,value
2022-12-22T00:01:56.643Z,57.87
2022-12-22T00:07:17.644Z,62.05
2022-12-22T00:12:39.945Z,56.66
2022-12-22T00:18:01.024Z,57.15
2022-12-22T00:23:24.563Z,59.37
2022-12-22T00:28:52.728Z,54.97
2022-12-22T00:34:13.523Z,53.71
2022-12-22T00:39:34.251Z,55.52
2022-12-22T00:44:56.625Z,53.62
2022-12-22T00:50:18.083Z,55.39
2022-12-22T00:55:43.959Z,53.51
2022-12-22T01:01:08.388Z,52.60
2022-12-22T01:06:32.060Z,52.94
2022-12-22T01:11:55.042Z,54.05
2022-12-22T01:17:17.271Z,54.23
2022-12-22T01:22:40.537Z,54.12
2022-12-22T01:28:01.446Z,53.72
2022-12-22T01:33:23.983Z,54.32
2022-12-22T01:38:44.829Z,52.93
2022-12-22T01:44:05.643Z,52.89
2022-12-22T01:49:30.861Z,53.25
2022-12-22T01:54:51.647Z,52.88
2022-12-22T02:00:15.277Z,54.22
2022-12-22T02:05:39.177Z,50.84
2022-12-22T02:11:22.348Z,52.15
2022-12-22T02:16:49.971Z,49.51
2022-12-22T02:22:21.458Z,48.66
2022-12-22T02:27:45.747Z,47.59
2022-12-22T02:33:09.776Z,48.82
2022-12-22T02:38:42.789Z,48.52
2022-12-22T02:44:17.899Z,53.60
2022-12-22T02:49:42.308Z,47.92
2022-12-22T02:55:05.545Z,48.21
2022-12-22T03:00:28.414Z,51.57
2022-12-22T03:05:51.367Z,46.38
2022-12-22T03:11:12.582Z,46.41
2022-12-22T03:16:39.518Z,45.27
2022-12-22T03:22:02.514Z,44.70
2022-12-22T03:27:05.896Z,43.64
2022-12-22T03:32:10.724Z,43.98
2022-12-22T03:37:14.105Z,42.45
2022-12-22T03:42:37.103Z,41.78
2022-12-22T03:47:43.905Z,40.44
2022-12-22T03:52:52.566Z,38.86
2022-12-22T03:57:55.884Z,38.52
2022-12-22T04:03:00.729Z,38.14
2022-12-22T04:08:04.130Z,38.27
2022-12-22T04:13:07.464Z,38.75
2022-12-22T04:18:12.146Z,38.00
2022-12-22T04:23:15.498Z,39.72
2022-12-22T04:28:18.979Z,45.62
2022-12-22T04:33:25.939Z,38.80
2022-12-22T04:38:31.645Z,39.67
2022-12-22T04:43:35.424Z,39.70
2022-12-22T04:48:42.290Z,39.17
2022-12-22T04:53:47.813Z,39.89
2022-12-22T04:58:53.272Z,40.44
2022-12-22T05:04:00.130Z,39.47
2022-12-22T05:09:03.501Z,38.91
2022-12-22T05:14:09.283Z,39.08
2022-12-22T05:19:13.986Z,39.55
2022-12-22T05:24:22.331Z,40.04
2022-12-22T05:29:27.938Z,41.21
2022-12-22T05:34:32.642Z,39.27
2022-12-22T05:39:36.000Z,40.60
2022-12-22T05:44:39.326Z,39.00
2022-12-22T05:49:46.535Z,40.31
2022-12-22T05:54:49.919Z,39.94
2022-12-22T05:59:53.315Z,39.84
2022-12-22T06:05:00.359Z,39.76
2022-12-22T06:10:09.780Z,41.04
2022-12-22T06:15:18.243Z,40.62
2022-12-22T06:20:23.018Z,41.50
2022-12-22T06:25:26.453Z,45.64
2022-12-22T06:30:33.671Z,47.01
2022-12-22T06:35:40.867Z,44.45
2022-12-22T06:40:46.668Z,44.06
2022-12-22T06:45:50.088Z,44.43
2022-12-22T06:50:58.601Z,45.13
2022-12-22T06:56:02.080Z,46.35
2022-12-22T07:01:05.583Z,46.71
2022-12-22T07:06:13.783Z,48.93
2022-12-22T07:11:17.759Z,43.82
2022-12-22T07:16:21.317Z,44.33
2022-12-22T07:21:26.118Z,42.72
2022-12-22T07:26:29.680Z,41.86
2022-12-22T07:31:33.233Z,42.41
2022-12-22T07:36:40.794Z,43.13
2022-12-22T07:42:01.618Z,46.72
2022-12-22T07:47:07.317Z,44.99
2022-12-22T07:52:14.481Z,43.29
2022-12-22T07:57:17.914Z,41.89
2022-12-22T08:02:21.465Z,42.25
2022-12-22T08:07:29.171Z,43.12
2022-12-22T08:12:33.280Z,41.85
2022-12-22T08:17:36.902Z,44.63
2022-12-22T08:22:44.860Z,44.75
2022-12-22T08:27:52.075Z,45.06
2022-12-22T08:32:55.591Z,43.54
2022-12-22T08:38:00.478Z,43.73
2022-12-22T08:43:06.797Z,44.53
2022-12-22T08:48:10.915Z,45.49
2022-12-22T08:53:45.293Z,43.24
2022-12-22T08:58:40.246Z,45.63
2022-12-22T09:03:43.704Z,44.51
2022-12-22T09:08:48.958Z,42.13
2022-12-22T09:13:54.027Z,42.43
2022-12-22T09:19:00.086Z,41.06
2022-12-22T09:24:07.595Z,39.79
2022-12-22T09:29:15.614Z,39.39
2022-12-22T09:34:19.336Z,39.53
2022-12-22T09:39:28.816Z,39.71
2022-12-22T09:44:38.962Z,39.06
2022-12-22T09:49:42.536Z,42.37
2022-12-22T09:54:49.604Z,41.87
2022-12-22T09:59:53.531Z,40.70
2022-12-22T10:05:19.388Z,41.86
2022-12-22T10:10:28.238Z,42.05
2022-12-22T10:15:38.398Z,40.84
2022-12-22T10:20:43.222Z,41.04
2022-12-22T10:31:31.247Z,36.65
2022-12-22T10:36:34.897Z,42.00
2022-12-22T10:41:43.126Z,40.30
2022-12-22T10:46:52.638Z,44.00
2022-12-22T10:52:11.790Z,45.69
2022-12-22T10:57:30.488Z,44.44
2022-12-22T11:02:35.110Z,47.37
2022-12-22T11:07:40.405Z,46.96
2022-12-22T11:13:00.432Z,48.31
2022-12-22T11:18:11.642Z,46.23
2022-12-22T11:23:21.385Z,45.74
2022-12-22T11:28:39.257Z,51.62
2022-12-22T11:33:53.074Z,46.87
2022-12-22T11:39:00.452Z,46.27
2022-12-22T11:44:19.715Z,45.89
2022-12-22T11:49:47.847Z,45.78
2022-12-22T11:55:04.142Z,44.24
2022-12-22T12:00:13.248Z,45.51
2022-12-22T12:05:33.098Z,44.98
2022-12-22T12:10:45.993Z,46.33
2022-12-22T12:15:55.341Z,46.37
2022-12-22T12:21:05.761Z,48.11
2022-12-22T12:26:18.154Z,51.41
2022-12-22T12:31:30.090Z,47.22
2022-12-22T12:36:42.051Z,48.14
2022-12-22T12:41:51.418Z,49.61
2022-12-22T12:47:06.264Z,48.21
2022-12-22T12:52:10.184Z,47.82
2022-12-22T12:57:27.180Z,45.09
2022-12-22T13:02:36.378Z,41.10
2022-12-22T13:08:10.574Z,38.63
2022-12-22T13:13:34.756Z,38.01
2022-12-22T13:18:49.751Z,36.69
2022-12-22T13:24:23.944Z,35.28
2022-12-22T13:29:30.033Z,34.48
2022-12-22T13:35:28.463Z,30.79
2022-12-22T13:40:21.725Z,30.66
2022-12-22T13:45:34.629Z,33.42
2022-12-22T13:50:44.209Z,35.49
2022-12-22T13:55:49.322Z,37.53
2022-12-22T14:01:14.653Z,33.08
2022-12-22T14:06:27.545Z,33.37
2022-12-22T14:11:32.513Z,34.28
2022-12-22T14:16:36.060Z,34.83
2022-12-22T14:21:41.213Z,34.50
2022-12-22T14:26:44.961Z,34.70
2022-12-22T14:31:52.375Z,41.00
2022-12-22T14:37:02.573Z,39.47
2022-12-22T14:42:14.232Z,39.72
2022-12-22T14:47:20.162Z,39.37
2022-12-22T14:52:28.921Z,37.03
2022-12-22T14:57:37.315Z,36.79
2022-12-22T15:02:41.599Z,36.75
2022-12-22T15:08:08.250Z,36.58
2022-12-22T15:13:18.152Z,37.00
2022-12-22T15:18:25.864Z,36.86
2022-12-22T15:23:30.647Z,37.84
2022-12-22T15:28:34.577Z,37.70
2022-12-22T15:33:38.065Z,37.87
2022-12-22T15:38:42.941Z,40.40
2022-12-22T15:44:01.814Z,42.14
2022-12-22T15:49:05.589Z,45.45
2022-12-22T15:54:14.924Z,45.14
2022-12-22T15:59:20.963Z,46.59
2022-12-22T16:04:25.576Z,53.77
2022-12-22T16:09:38.200Z,50.38
2022-12-22T16:14:48.022Z,49.46
2022-12-22T16:19:53.717Z,49.87
2022-12-22T16:25:03.699Z,51.59
2022-12-22T16:30:08.534Z,61.04
2022-12-22T16:35:16.863Z,51.98
2022-12-22T16:40:21.648Z,52.06
2022-12-22T16:45:27.403Z,52.59
2022-12-22T16:50:33.379Z,51.86
2022-12-22T16:55:38.254Z,52.28
2022-12-22T17:00:43.927Z,53.24
2022-12-22T17:05:49.784Z,54.40
2022-12-22T17:10:57.479Z,53.80
2022-12-22T17:16:05.204Z,53.06
2022-12-22T17:21:12.040Z,53.85
2022-12-22T17:26:19.529Z,52.87
2022-12-22T17:31:25.132Z,52.06
2022-12-22T17:36:33.315Z,50.45
2022-12-22T17:41:38.706Z,54.86
2022-12-22T17:46:45.096Z,50.62
2022-12-22T17:51:51.506Z,50.71
2022-12-22T17:57:02.481Z,50.42
2022-12-22T18:02:06.667Z,50.54
2022-12-22T18:07:10.774Z,49.10
2022-12-22T18:12:22.441Z,52.41
2022-12-22T18:17:33.321Z,51.58
2022-12-22T18:22:41.553Z,51.46
2022-12-22T18:27:47.315Z,51.20
2022-12-22T18:32:52.606Z,50.32
2022-12-22T18:37:59.657Z,50.70
2022-12-22T18:43:07.791Z,50.84
2022-12-22T18:48:11.674Z,51.23
2022-12-22T18:53:23.018Z,50.26
2022-12-22T18:58:30.311Z,50.83
2022-12-22T19:03:34.337Z,51.69
2022-12-22T19:08:45.115Z,50.55
2022-12-22T19:13:53.002Z,51.71
2022-12-22T19:19:01.771Z,51.75
2022-12-22T19:24:06.117Z,50.07
2022-12-22T19:29:15.533Z,50.97
2022-12-22T19:34:21.144Z,56.39
2022-12-22T19:39:26.856Z,49.71
2022-12-22T19:44:32.177Z,49.69
2022-12-22T19:49:35.839Z,51.96
2022-12-22T19:54:41.876Z,51.54
2022-12-22T19:59:49.190Z,48.66
2022-12-22T20:04:53.107Z,45.70
2022-12-22T20:09:56.551Z,41.57
2022-12-22T20:15:02.373Z,39.56
2022-12-22T20:20:06.252Z,38.65
2022-12-22T20:25:14.751Z,37.76
2022-12-22T20:30:23.549Z,37.16
2022-12-22T20:35:27.139Z,38.02
2022-12-22T20:40:33.630Z,37.72
2022-12-22T20:45:38.627Z,42.43
2022-12-22T20:50:42.227Z,38.13
2022-12-22T20:55:46.354Z,35.87
2022-12-22T21:00:52.354Z,35.64
2022-12-22T21:05:55.811Z,34.02
2022-12-22T21:11:01.597Z,34.09
2022-12-22T21:16:07.082Z,34.43
2022-12-22T21:21:11.493Z,33.68
2022-12-22T21:26:20.929Z,32.52
2022-12-22T21:31:25.812Z,32.30
2022-12-22T21:36:33.519Z,31.65
2022-12-22T21:41:56.803Z,32.59
2022-12-22T21:47:02.174Z,32.50
2022-12-22T21:52:05.875Z,31.48
2022-12-22T21:57:15.192Z,32.57
2022-12-22T22:02:20.218Z,31.05
2022-12-22T22:07:24.277Z,31.22
2022-12-22T22:12:33.720Z,31.52
2022-12-22T22:17:38.693Z,34.54
2022-12-22T22:22:44.576Z,32.57
2022-12-22T22:27:48.449Z,34.66
2022-12-22T22:32:56.293Z,35.89
2022-12-22T22:37:59.788Z,36.19
2022-12-22T22:43:03.279Z,35.02
2022-12-22T22:48:11.083Z,33.76
2022-12-22T22:53:14.859Z,34.42
2022-12-22T22:58:18.356Z,34.50
2022-12-22T23:03:25.999Z,34.30
2022-12-22T23:08:30.613Z,33.57
2022-12-22T23:13:36.424Z,35.05
2022-12-22T23:18:41.268Z,34.03
2022-12-22T23:23:44.735Z,36.05
2022-12-22T23:28:48.105Z,34.37
2022-12-22T23:33:53.060Z,33.64
2022-12-22T23:38:58.885Z,33.66
2022-12-22T23:44:05.407Z,36.69
2022-12-22T23:49:14.127Z,31.33
2022-12-22T23:54:20.085Z,31.75
2022-12-22T23:59:23.532Z,31.11
